Time;durP1;ratioP1;P1;durP2;ratioP2;P2;SDS_P1;SDS_P2;PMS_P1;PMS_P2;Temp;Humidity;BMP_temperature;BMP_pressure;BME280_temperature;BME280_humidity;BME280_pressure;Samples;Min_cycle;Max_cycle;Signal;HPM_P1;HPM_P2
2021/08/20 00:00:18;;;;;;;;;;;14.90;99.90;;;;;;8428931;28;19916;-68
2021/08/20 00:04:18;;;;;;;;;;;15.00;99.90;;;;;;8428869;28;19916;-68
2021/08/20 00:08:19;;;;;;;;;;;15.00;99.90;;;;;;8428552;28;19916;-68
2021/08/20 00:12:19;;;;;;;;;;;15.00;99.90;;;;;;8428527;28;20381;-68
2021/08/20 00:16:20;;;;;;;;;;;15.00;99.90;;;;;;8428536;28;19908;-68
2021/08/20 00:20:20;;;;;;;;;;;14.80;99.90;;;;;;8426749;28;20023;-68
2021/08/20 00:24:21;;;;;;;;;;;14.90;99.90;;;;;;8427489;28;19915;-68
2021/08/20 00:28:21;;;;;;;;;;;14.80;99.90;;;;;;8427966;28;19912;-68
2021/08/20 00:32:22;;;;;;;;;;;15.10;99.90;;;;;;8427733;28;19945;-68
2021/08/20 00:36:22;;;;;;;;;;;15.00;99.90;;;;;;8427769;28;19928;-68
2021/08/20 00:40:23;;;;;;;;;;;15.00;99.90;;;;;;8426274;28;20415;-68
2021/08/20 00:44:23;;;;;;;;;;;14.80;99.90;;;;;;8427648;28;19998;-68
2021/08/20 00:48:24;;;;;;;;;;;14.90;99.90;;;;;;8426547;28;19919;-68
2021/08/20 00:52:25;;;;;;;;;;;14.80;99.90;;;;;;8427247;28;19916;-68
2021/08/20 00:56:25;;;;;;;;;;;14.70;99.90;;;;;;8427184;28;20068;-68
2021/08/20 01:00:26;;;;;;;;;;;14.70;99.90;;;;;;8426945;28;20340;-68
2021/08/20 01:04:27;;;;;;;;;;;14.50;99.90;;;;;;8427200;28;19912;-67
2021/08/20 01:08:28;;;;;;;;;;;14.80;99.90;;;;;;8426653;28;19928;-68
2021/08/20 01:12:28;;;;;;;;;;;14.60;99.90;;;;;;8426604;28;19973;-68
2021/08/20 01:16:29;;;;;;;;;;;14.50;99.90;;;;;;8426506;28;20329;-68
2021/08/20 02:34:40;;;;;;;;;;;14.40;99.90;;;;;;8424835;28;20423;-68
2021/08/20 02:38:40;;;;;;;;;;;14.30;99.90;;;;;;8424971;28;19912;-68
2021/08/20 02:42:41;;;;;;;;;;;14.40;99.90;;;;;;8424823;28;20282;-68
2021/08/20 02:46:41;;;;;;;;;;;14.30;99.90;;;;;;8423865;28;19955;-68
2021/08/20 02:50:42;;;;;;;;;;;14.30;99.90;;;;;;8424565;28;19919;-68
2021/08/20 02:54:42;;;;;;;;;;;14.30;99.90;;;;;;8424758;28;19991;-68
2021/08/20 02:58:43;;;;;;;;;;;14.30;99.90;;;;;;8424560;28;19908;-68
2021/08/20 03:02:43;;;;;;;;;;;14.50;99.90;;;;;;8424862;28;19915;-68
2021/08/20 03:06:44;;;;;;;;;;;14.50;99.90;;;;;;8424399;28;19930;-68
2021/08/20 03:10:44;;;;;;;;;;;14.30;99.90;;;;;;8426457;28;19981;-68
2021/08/20 03:14:44;;;;;;;;;;;14.70;99.90;;;;;;8430459;28;20354;-68
2021/08/20 03:18:45;;;;;;;;;;;14.50;99.90;;;;;;8430213;28;20616;-68
2021/08/20 03:22:46;;;;;;;;;;;14.50;99.90;;;;;;8430069;28;20382;-68
2021/08/20 03:26:46;;;;;;;;;;;14.40;99.90;;;;;;8429595;28;19908;-68
2021/08/20 03:30:46;;;;;;;;;;;14.40;99.90;;;;;;8429215;28;19916;-68
2021/08/20 03:34:47;;;;;;;;;;;14.60;99.90;;;;;;8428264;28;19998;-68
2021/08/20 03:38:49;;;;;;;;;;;14.70;99.90;;;;;;8429505;28;19909;-68
2021/08/20 03:42:53;;;;;;;;;;;14.60;99.90;;;;;;8429614;28;19965;-68
2021/08/20 03:46:54;;;;;;;;;;;14.80;99.90;;;;;;8428168;28;20003;-68
2021/08/20 03:50:54;;;;;;;;;;;14.80;99.90;;;;;;8428671;28;19923;-68
2021/08/20 03:54:55;;;;;;;;;;;14.70;99.90;;;;;;8429194;28;19934;-68
2021/08/20 03:58:58;;;;;;;;;;;14.80;99.90;;;;;;8428158;28;19912;-73
2021/08/20 04:02:58;;;;;;;;;;;14.70;99.90;;;;;;8427679;28;19913;-72
2021/08/20 04:06:59;;;;;;;;;;;14.80;99.90;;;;;;8424934;28;19923;-73
2021/08/20 04:10:59;;;;;;;;;;;14.80;99.90;;;;;;8411286;28;20299;-73
2021/08/20 04:15:00;;;;;;;;;;;15.00;99.90;;;;;;8428970;28;20283;-73
2021/08/20 04:19:00;;;;;;;;;;;14.90;99.90;;;;;;8427310;28;20011;-73
2021/08/20 04:23:00;;;;;;;;;;;15.00;99.90;;;;;;8428072;28;19912;-74
2021/08/20 04:27:01;;;;;;;;;;;15.10;99.90;;;;;;8426538;28;19934;-72
2021/08/20 04:31:02;;;;;;;;;;;15.00;99.90;;;;;;8427238;28;19912;-73
2021/08/20 04:35:02;;;;;;;;;;;14.90;99.90;;;;;;8426363;28;19966;-70
2021/08/20 04:39:03;;;;;;;;;;;14.90;99.90;;;;;;8419009;28;19912;-70
2021/08/20 04:43:04;;;;;;;;;;;15.00;99.90;;;;;;8393907;28;20255;-70
2021/08/20 04:47:04;;;;;;;;;;;15.10;99.90;;;;;;8391913;28;19939;-70
2021/08/20 04:51:05;;;;;;;;;;;15.00;99.90;;;;;;8399633;28;19912;-71
2021/08/20 04:55:06;;;;;;;;;;;15.00;99.90;;;;;;8425182;28;19908;-70
2021/08/20 04:59:06;;;;;;;;;;;15.10;99.90;;;;;;8424681;28;19908;-70
2021/08/20 05:03:07;;;;;;;;;;;15.40;99.90;;;;;;8427970;28;19908;-70
2021/08/20 05:07:07;;;;;;;;;;;15.20;99.90;;;;;;8427395;28;19908;-71
2021/08/20 05:11:09;;;;;;;;;;;15.30;99.90;;;;;;8427134;28;19916;-70
2021/08/20 05:15:09;;;;;;;;;;;15.30;99.90;;;;;;8427238;28;19908;-71
2021/08/20 05:19:10;;;;;;;;;;;15.30;99.90;;;;;;8426475;28;20015;-70
2021/08/20 05:23:10;;;;;;;;;;;15.40;99.90;;;;;;8426539;28;19912;-70
2021/08/20 05:27:11;;;;;;;;;;;15.50;99.90;;;;;;8426688;28;19912;-70
2021/08/20 05:31:11;;;;;;;;;;;15.50;99.90;;;;;;8426029;28;20372;-70
2021/08/20 05:35:13;;;;;;;;;;;15.60;99.90;;;;;;8420826;28;20431;-69
2021/08/20 05:39:13;;;;;;;;;;;15.70;99.90;;;;;;8422606;28;19912;-70
2021/08/20 05:43:15;;;;;;;;;;;16.00;99.90;;;;;;8411721;28;20305;-70
2021/08/20 05:47:15;;;;;;;;;;;16.00;99.90;;;;;;8408464;28;19947;-70
2021/08/20 05:51:16;;;;;;;;;;;16.10;99.90;;;;;;8416240;28;20289;-69
2021/08/20 05:55:16;;;;;;;;;;;15.90;99.90;;;;;;8422705;28;19982;-69
2021/08/20 05:59:16;;;;;;;;;;;16.00;99.90;;;;;;8424740;28;19920;-70
2021/08/20 06:03:21;;;;;;;;;;;16.10;99.90;;;;;;8422407;28;19919;-69
2021/08/20 06:07:22;;;;;;;;;;;16.10;99.90;;;;;;8424691;28;21093;-71
2021/08/20 06:11:22;;;;;;;;;;;16.20;99.90;;;;;;8424315;28;19916;-70
2021/08/20 06:15:23;;;;;;;;;;;16.50;99.90;;;;;;8422615;28;20370;-70
2021/08/20 06:19:24;;;;;;;;;;;16.60;99.90;;;;;;8416037;28;20290;-72
2021/08/20 06:23:25;;;;;;;;;;;16.60;99.90;;;;;;8425316;28;19908;-70
2021/08/20 06:27:25;;;;;;;;;;;16.40;99.90;;;;;;8425323;28;19912;-70
2021/08/20 06:31:26;;;;;;;;;;;16.50;99.90;;;;;;8425535;28;19912;-70
2021/08/20 06:35:26;;;;;;;;;;;16.80;99.90;;;;;;8423440;28;19916;-71
2021/08/20 06:39:27;;;;;;;;;;;17.30;99.90;;;;;;8423305;28;20359;-70
2021/08/20 06:43:28;;;;;;;;;;;17.80;99.90;;;;;;8422699;28;20386;-70
2021/08/20 06:47:28;;;;;;;;;;;18.30;99.90;;;;;;8428547;28;19912;-72
2021/08/20 06:51:28;;;;;;;;;;;18.50;99.90;;;;;;8430576;28;20302;-70
2021/08/20 06:55:33;;;;;;;;;;;19.00;99.90;;;;;;8429340;28;20003;-72
2021/08/20 06:59:33;;;;;;;;;;;19.20;99.90;;;;;;8431138;28;20439;-72
2021/08/20 07:03:33;;;;;;;;;;;19.60;99.90;;;;;;8429333;28;19970;-71
2021/08/20 07:07:34;;;;;;;;;;;20.00;99.90;;;;;;8430185;28;19919;-70
2021/08/20 07:11:34;;;;;;;;;;;20.20;99.90;;;;;;8430839;28;19912;-70
2021/08/20 07:15:35;;;;;;;;;;;20.10;99.90;;;;;;8429728;28;19965;-71
2021/08/20 07:19:35;;;;;;;;;;;20.20;99.90;;;;;;8425822;28;20351;-71
2021/08/20 07:23:36;;;;;;;;;;;20.30;99.90;;;;;;8419977;28;20461;-70
2021/08/20 07:27:36;;;;;;;;;;;20.50;99.90;;;;;;8408313;28;19912;-68
2021/08/20 07:31:37;;;;;;;;;;;20.90;99.90;;;;;;8393081;28;20387;-68
2021/08/20 07:35:37;;;;;;;;;;;21.30;99.90;;;;;;8392783;28;20400;-70
2021/08/20 07:39:38;;;;;;;;;;;21.80;99.90;;;;;;8410127;28;19991;-70
2021/08/20 07:43:38;;;;;;;;;;;21.60;99.90;;;;;;8427263;28;19915;-68
2021/08/20 07:47:42;;;;;;;;;;;21.60;99.90;;;;;;8427096;28;19939;-68
2021/08/20 07:51:42;;;;;;;;;;;20.90;99.90;;;;;;8426579;28;20301;-68
2021/08/20 07:55:43;;;;;;;;;;;20.70;99.90;;;;;;8426511;28;19915;-68
2021/08/20 07:59:44;;;;;;;;;;;20.90;99.90;;;;;;8425527;28;19912;-68
2021/08/20 08:03:44;;;;;;;;;;;21.10;99.90;;;;;;8425598;28;20225;-68
2021/08/20 08:07:45;;;;;;;;;;;21.00;99.90;;;;;;8423990;28;19912;-68
2021/08/20 08:11:45;;;;;;;;;;;20.90;99.90;;;;;;8425407;28;19986;-69
2021/08/20 08:15:46;;;;;;;;;;;20.90;99.90;;;;;;8423298;28;19944;-69
2021/08/20 08:19:46;;;;;;;;;;;21.10;99.90;;;;;;8391412;28;19909;-68
2021/08/20 08:23:46;;;;;;;;;;;21.30;99.90;;;;;;8423145;28;19912;-69
2021/08/20 08:27:48;;;;;;;;;;;21.70;99.90;;;;;;8424814;28;19912;-68
2021/08/20 08:31:48;;;;;;;;;;;21.60;99.90;;;;;;8426143;28;20649;-70
2021/08/20 08:35:49;;;;;;;;;;;21.60;99.90;;;;;;8426365;28;19916;-69
2021/08/20 08:39:49;;;;;;;;;;;21.70;99.90;;;;;;8427096;28;19959;-68
2021/08/20 08:43:50;;;;;;;;;;;22.00;99.90;;;;;;8424767;28;19916;-69
2021/08/20 08:47:52;;;;;;;;;;;22.10;99.90;;;;;;8426220;28;20489;-69
2021/08/20 08:51:53;;;;;;;;;;;22.30;99.90;;;;;;8426221;28;19916;-68
2021/08/20 08:55:54;;;;;;;;;;;22.50;99.90;;;;;;8426428;28;20409;-71
2021/08/20 08:59:54;;;;;;;;;;;22.40;99.90;;;;;;8426008;28;19908;-71
2021/08/20 09:04:10;;;;;;;;;;;22.70;99.90;;;;;;8423465;28;20345;-70
2021/08/20 09:08:15;;;;;;;;;;;22.50;99.90;;;;;;8422790;28;19923;-70
2021/08/20 09:12:25;;;;;;;;;;;23.10;99.90;;;;;;8424341;28;19924;-71
2021/08/20 09:16:35;;;;;;;;;;;23.80;99.90;;;;;;8426153;28;20076;-70
2021/08/20 09:20:36;;;;;;;;;;;24.30;99.90;;;;;;8425628;28;19965;-68
2021/08/20 09:24:42;;;;;;;;;;;24.90;99.90;;;;;;8424543;28;20465;-68
2021/08/20 09:28:42;;;;;;;;;;;24.80;99.90;;;;;;8422443;28;19961;-68
2021/08/20 09:32:42;;;;;;;;;;;24.10;99.90;;;;;;8425445;28;19916;-69
2021/08/20 09:36:43;;;;;;;;;;;24.40;99.90;;;;;;8425423;28;19916;-68
2021/08/20 09:40:50;;;;;;;;;;;24.50;99.90;;;;;;8415950;28;19908;-68
2021/08/20 09:45:10;;;;;;;;;;;25.10;99.90;;;;;;8415556;28;20381;-69
2021/08/20 09:49:11;;;;;;;;;;;25.70;99.90;;;;;;8415304;28;19916;-68
2021/08/20 09:53:14;;;;;;;;;;;25.90;99.90;;;;;;8418904;28;19941;-69
2021/08/20 09:57:15;;;;;;;;;;;25.60;99.90;;;;;;8419337;28;19920;-69
2021/08/20 10:01:15;;;;;;;;;;;23.90;99.90;;;;;;8423445;28;20397;-68
2021/08/20 10:05:16;;;;;;;;;;;23.30;99.90;;;;;;8420503;28;20487;-68
2021/08/20 10:09:18;;;;;;;;;;;23.40;99.90;;;;;;8425053;28;20349;-69
2021/08/20 10:13:18;;;;;;;;;;;24.30;99.90;;;;;;8425142;28;19920;-69
2021/08/20 10:17:20;;;;;;;;;;;25.70;99.90;;;;;;8422635;28;20045;-69
2021/08/20 10:21:20;;;;;;;;;;;26.80;99.90;;;;;;8430424;28;19919;-69
2021/08/20 10:25:21;;;;;;;;;;;27.20;99.90;;;;;;8432539;28;19930;-68
2021/08/20 10:29:22;;;;;;;;;;;27.40;99.90;;;;;;8431599;28;19909;-69
2021/08/20 10:33:33;;;;;;;;;;;27.00;99.90;;;;;;8431144;28;19938;-69
2021/08/20 10:37:34;;;;;;;;;;;26.40;99.90;;;;;;8430677;28;19916;-69
2021/08/20 10:41:35;;;;;;;;;;;25.80;99.90;;;;;;8431788;28;20374;-69
2021/08/20 10:45:37;;;;;;;;;;;25.30;99.90;;;;;;8432059;28;19915;-68
2021/08/20 10:49:40;;;;;;;;;;;24.70;99.90;;;;;;8429936;28;19912;-69
2021/08/20 10:53:47;;;;;;;;;;;24.90;99.90;;;;;;8425581;28;19962;-69
2021/08/20 10:57:49;;;;;;;;;;;25.80;99.90;;;;;;8430010;28;20358;-69
2021/08/20 11:01:50;;;;;;;;;;;26.30;99.90;;;;;;8430715;28;19912;-69
2021/08/20 11:05:50;;;;;;;;;;;27.20;99.90;;;;;;8430529;28;19924;-69
2021/08/20 11:09:51;;;;;;;;;;;27.60;99.90;;;;;;8429535;28;19923;-70
2021/08/20 11:14:10;;;;;;;;;;;28.20;99.90;;;;;;8429272;28;19923;-70
2021/08/20 11:18:10;;;;;;;;;;;30.80;95.00;;;;;;8414921;28;20473;-69
2021/08/20 11:22:11;;;;;;;;;;;33.50;90.70;;;;;;8445583;27;19912;-72
2021/08/20 11:26:26;;;;;;;;;;;35.00;75.30;;;;;;8430296;28;19962;-69
2021/08/20 11:30:27;;;;;;;;;;;36.00;68.10;;;;;;8426917;28;19916;-70
2021/08/20 11:34:29;;;;;;;;;;;38.40;59.90;;;;;;8395538;28;21388;-70
2021/08/20 11:38:46;;;;;;;;;;;36.80;56.30;;;;;;8423896;28;19923;-69
2021/08/20 11:43:06;;;;;;;;;;;32.70;64.10;;;;;;8428614;28;19990;-69
2021/08/20 11:47:06;;;;;;;;;;;30.70;75.60;;;;;;8428906;28;19912;-71
2021/08/20 11:51:07;;;;;;;;;;;33.00;70.30;;;;;;8425386;28;19912;-70
2021/08/20 11:55:14;;;;;;;;;;;37.10;58.60;;;;;;8425715;28;20006;-69
2021/08/20 11:59:15;;;;;;;;;;;37.50;49.00;;;;;;8426639;28;19968;-69
2021/08/20 12:03:15;;;;;;;;;;;34.60;53.60;;;;;;8428877;28;19908;-69
2021/08/20 12:07:31;;;;;;;;;;;33.60;56.60;;;;;;8427439;28;19908;-69
2021/08/20 12:11:32;;;;;;;;;;;32.70;55.40;;;;;;8427633;28;19913;-69
2021/08/20 12:15:32;;;;;;;;;;;32.70;56.10;;;;;;8427049;28;19963;-69
2021/08/20 12:19:43;;;;;;;;;;;33.40;55.60;;;;;;8428085;28;20007;-69
2021/08/20 12:23:54;;;;;;;;;;;35.30;53.60;;;;;;8428067;28;20275;-69
2021/08/20 12:27:55;;;;;;;;;;;36.70;49.70;;;;;;8427739;28;19914;-70
2021/08/20 12:31:57;;;;;;;;;;;38.10;48.30;;;;;;8426441;28;20301;-70
2021/08/20 12:35:57;;;;;;;;;;;40.90;44.80;;;;;;8427661;28;20038;-70
2021/08/20 12:40:08;;;;;;;;;;;38.20;46.10;;;;;;8427212;28;19916;-70
2021/08/20 12:44:09;;;;;;;;;;;40.30;44.40;;;;;;8425796;28;19914;-69
2021/08/20 12:48:10;;;;;;;;;;;41.40;43.70;;;;;;8425751;28;19915;-71
2021/08/20 12:52:10;;;;;;;;;;;43.00;37.90;;;;;;8426583;28;19916;-69
2021/08/20 12:56:11;;;;;;;;;;;43.30;38.20;;;;;;8425988;28;20281;-70
2021/08/20 13:00:12;;;;;;;;;;;42.90;35.60;;;;;;8426128;28;19908;-69
2021/08/20 13:04:12;;;;;;;;;;;42.70;37.60;;;;;;8427057;28;20286;-70
2021/08/20 13:08:12;;;;;;;;;;;41.80;39.60;;;;;;8423199;28;19908;-70
2021/08/20 13:12:13;;;;;;;;;;;40.20;41.10;;;;;;8423951;28;19912;-69
2021/08/20 13:16:14;;;;;;;;;;;38.20;45.70;;;;;;8424586;28;19915;-70
2021/08/20 13:20:15;;;;;;;;;;;40.80;42.30;;;;;;8425852;28;19912;-71
2021/08/20 13:24:15;;;;;;;;;;;43.50;38.10;;;;;;8426163;28;19908;-70
2021/08/20 13:28:16;;;;;;;;;;;40.20;41.10;;;;;;8426171;28;20548;-69
2021/08/20 13:32:16;;;;;;;;;;;37.10;44.00;;;;;;8426170;28;19912;-69
2021/08/20 13:36:17;;;;;;;;;;;34.60;49.30;;;;;;8424588;28;19916;-70
2021/08/20 13:40:17;;;;;;;;;;;38.80;44.00;;;;;;8424497;28;19908;-70
2021/08/20 13:44:18;;;;;;;;;;;42.00;40.50;;;;;;8425627;28;19908;-70
2021/08/20 13:48:18;;;;;;;;;;;44.00;39.10;;;;;;8423461;28;19908;-70
2021/08/20 13:52:19;;;;;;;;;;;46.70;35.70;;;;;;8425335;28;19912;-69
2021/08/20 13:56:19;;;;;;;;;;;48.10;32.80;;;;;;8424227;28;19908;-72
2021/08/20 14:00:20;;;;;;;;;;;48.70;31.90;;;;;;8423204;28;19912;-71
2021/08/20 14:04:20;;;;;;;;;;;49.30;31.00;;;;;;8424475;28;19964;-69
2021/08/20 14:08:21;;;;;;;;;;;49.30;30.80;;;;;;8425339;28;19939;-70
2021/08/20 14:12:22;;;;;;;;;;;48.80;29.00;;;;;;8424341;28;19919;-69
2021/08/20 14:16:22;;;;;;;;;;;47.30;29.70;;;;;;8424801;28;19912;-70
2021/08/20 14:20:23;;;;;;;;;;;47.10;30.10;;;;;;8420424;28;19947;-70
2021/08/20 14:24:25;;;;;;;;;;;48.00;30.70;;;;;;8417771;28;20363;-70
2021/08/20 14:28:25;;;;;;;;;;;47.60;28.70;;;;;;8420295;28;19912;-71
2021/08/20 14:32:29;;;;;;;;;;;45.40;30.20;;;;;;8422795;28;20356;-70
2021/08/20 14:36:31;;;;;;;;;;;43.70;31.80;;;;;;8422969;28;19916;-70
2021/08/20 14:40:32;;;;;;;;;;;43.20;31.70;;;;;;8417889;28;20354;-72
2021/08/20 14:44:32;;;;;;;;;;;43.80;33.60;;;;;;8421665;28;20152;-70
2021/08/20 14:48:33;;;;;;;;;;;40.80;35.00;;;;;;8423704;28;20345;-73
2021/08/20 14:52:35;;;;;;;;;;;38.40;38.70;;;;;;8423085;28;19912;-71
2021/08/20 14:56:36;;;;;;;;;;;39.80;36.50;;;;;;8424107;28;19912;-71
2021/08/20 15:00:36;;;;;;;;;;;41.30;36.50;;;;;;8414379;28;19947;-70
2021/08/20 15:04:37;;;;;;;;;;;43.40;34.90;;;;;;8391189;28;19913;-70
2021/08/20 15:08:38;;;;;;;;;;;44.10;33.80;;;;;;8395904;28;19953;-71
2021/08/20 15:13:13;;;;;;;;;;;44.10;33.60;;;;;;8396942;28;19912;-71
2021/08/20 15:17:05;;;;;;;;;;;43.10;34.60;;;;;;8400975;28;19919;-71
2021/08/20 15:21:06;;;;;;;;;;;42.50;34.70;;;;;;8427033;28;20116;-71
2021/08/20 15:25:08;;;;;;;;;;;41.50;35.30;;;;;;8426326;28;19946;-71
2021/08/20 15:29:09;;;;;;;;;;;41.30;36.60;;;;;;8429249;28;20242;-73
2021/08/20 15:33:09;;;;;;;;;;;41.20;36.30;;;;;;8430150;28;19912;-71
2021/08/20 15:37:10;;;;;;;;;;;42.00;36.10;;;;;;8428708;28;19923;-71
2021/08/20 15:41:11;;;;;;;;;;;41.90;36.70;;;;;;8428732;28;19916;-72
2021/08/20 15:45:11;;;;;;;;;;;40.70;37.20;;;;;;8416784;28;20360;-71
2021/08/20 15:49:12;;;;;;;;;;;38.60;40.50;;;;;;8409519;28;19991;-70
2021/08/20 15:53:13;;;;;;;;;;;38.40;41.70;;;;;;8408039;28;19939;-72
2021/08/20 15:57:14;;;;;;;;;;;38.10;41.50;;;;;;8411842;28;19969;-72
2021/08/20 16:01:15;;;;;;;;;;;40.50;39.70;;;;;;8428959;28;19935;-72
2021/08/20 16:05:15;;;;;;;;;;;41.70;37.70;;;;;;8428536;28;19991;-74
2021/08/20 16:09:16;;;;;;;;;;;39.40;40.30;;;;;;8426855;28;20325;-71
2021/08/20 16:13:17;;;;;;;;;;;35.50;46.30;;;;;;8428446;28;19916;-71
2021/08/20 16:17:17;;;;;;;;;;;33.70;50.80;;;;;;8427060;28;19959;-70
2021/08/20 16:21:23;;;;;;;;;;;33.90;50.70;;;;;;8426076;28;19946;-73
2021/08/20 16:25:23;;;;;;;;;;;32.10;54.60;;;;;;8422872;28;19977;-69
2021/08/20 16:29:24;;;;;;;;;;;30.20;58.50;;;;;;8421586;28;19908;-72
2021/08/20 16:33:25;;;;;;;;;;;28.70;61.20;;;;;;8417120;28;20531;-70
2021/08/20 16:37:25;;;;;;;;;;;28.60;64.00;;;;;;8423320;28;19919;-72
2021/08/20 16:41:26;;;;;;;;;;;30.20;60.20;;;;;;8424514;28;19965;-71
2021/08/20 16:45:26;;;;;;;;;;;32.10;55.70;;;;;;8407390;28;20367;-74
2021/08/20 16:49:27;;;;;;;;;;;32.60;55.00;;;;;;8411135;28;19908;-71
2021/08/20 16:53:28;;;;;;;;;;;32.50;55.80;;;;;;8420749;28;19916;-70
2021/08/20 16:57:28;;;;;;;;;;;33.00;55.10;;;;;;8422699;28;20267;-72
2021/08/20 17:01:29;;;;;;;;;;;32.80;54.90;;;;;;8422393;28;19975;-73
2021/08/20 17:05:29;;;;;;;;;;;32.20;55.90;;;;;;8422698;28;19916;-71
2021/08/20 17:09:30;;;;;;;;;;;31.90;55.10;;;;;;8424407;28;19912;-70
2021/08/20 17:13:31;;;;;;;;;;;30.80;57.90;;;;;;8423110;28;19961;-69
2021/08/20 17:17:31;;;;;;;;;;;28.90;61.70;;;;;;8421996;28;20370;-71
2021/08/20 17:21:33;;;;;;;;;;;27.40;71.30;;;;;;8421257;28;19923;-70
2021/08/20 17:25:34;;;;;;;;;;;25.90;73.10;;;;;;8420710;28;19918;-69
2021/08/20 17:29:35;;;;;;;;;;;25.30;76.80;;;;;;8424841;28;19908;-69
2021/08/20 17:33:35;;;;;;;;;;;24.60;81.10;;;;;;8424139;28;19916;-69
2021/08/20 17:37:37;;;;;;;;;;;24.00;85.40;;;;;;8426261;28;19942;-70
2021/08/20 17:41:38;;;;;;;;;;;23.70;90.00;;;;;;8426271;28;20331;-71
2021/08/20 17:45:39;;;;;;;;;;;23.60;92.50;;;;;;8426288;28;19954;-69
2021/08/20 17:49:39;;;;;;;;;;;23.50;94.50;;;;;;8424401;28;20222;-69
2021/08/20 17:53:40;;;;;;;;;;;23.10;98.70;;;;;;8424615;28;19997;-69
2021/08/20 17:57:40;;;;;;;;;;;22.70;99.90;;;;;;8424511;28;19965;-71
2021/08/20 18:01:41;;;;;;;;;;;22.50;99.90;;;;;;8425922;28;19912;-71
2021/08/20 18:05:45;;;;;;;;;;;22.20;99.90;;;;;;8424771;28;20274;-70
2021/08/20 18:09:46;;;;;;;;;;;22.10;99.90;;;;;;8425880;28;19915;-70
2021/08/20 18:13:46;;;;;;;;;;;22.00;99.90;;;;;;8425815;28;19914;-70
2021/08/20 18:17:47;;;;;;;;;;;21.60;99.90;;;;;;8424378;28;19908;-71
2021/08/20 18:21:47;;;;;;;;;;;21.40;99.90;;;;;;8411381;28;19913;-68
2021/08/20 18:25:48;;;;;;;;;;;21.10;99.90;;;;;;8398346;28;20599;-69
2021/08/20 18:29:48;;;;;;;;;;;20.80;99.90;;;;;;8396565;28;20398;-68
2021/08/20 18:33:49;;;;;;;;;;;20.60;99.90;;;;;;8396362;28;19916;-68
2021/08/20 18:37:49;;;;;;;;;;;20.40;99.90;;;;;;8391738;28;19909;-71
2021/08/20 18:41:50;;;;;;;;;;;20.20;99.90;;;;;;8393982;28;20007;-70
2021/08/20 18:45:51;;;;;;;;;;;20.00;99.90;;;;;;8396778;28;20364;-68
2021/08/20 18:49:51;;;;;;;;;;;19.60;99.90;;;;;;8397654;28;19913;-68
2021/08/20 18:53:52;;;;;;;;;;;19.40;99.90;;;;;;8431092;28;19908;-70
2021/08/20 18:57:53;;;;;;;;;;;19.10;99.90;;;;;;8431198;28;19947;-69
2021/08/20 19:01:53;;;;;;;;;;;19.20;99.90;;;;;;8431193;28;19912;-69
2021/08/20 19:05:53;;;;;;;;;;;19.10;99.90;;;;;;8429729;28;20294;-68
2021/08/20 19:09:54;;;;;;;;;;;19.20;99.90;;;;;;8419161;28;20382;-70
2021/08/20 19:13:55;;;;;;;;;;;19.20;99.90;;;;;;8396805;28;20281;-69
2021/08/20 19:17:56;;;;;;;;;;;19.00;99.90;;;;;;8395528;28;19954;-69
2021/08/20 19:21:56;;;;;;;;;;;19.00;99.90;;;;;;8413439;28;20011;-69
2021/08/20 19:25:57;;;;;;;;;;;18.70;99.90;;;;;;8430337;28;19908;-69
2021/08/20 19:29:57;;;;;;;;;;;18.60;99.90;;;;;;8429467;28;19943;-71
2021/08/20 19:34:01;;;;;;;;;;;18.60;99.90;;;;;;8429160;28;19941;-69
2021/08/20 19:38:02;;;;;;;;;;;18.40;99.90;;;;;;8427560;28;20374;-71
2021/08/20 19:42:03;;;;;;;;;;;18.30;99.90;;;;;;8416994;28;19915;-69
2021/08/20 19:46:04;;;;;;;;;;;18.30;99.90;;;;;;8395104;28;20374;-68
2021/08/20 19:50:05;;;;;;;;;;;18.20;99.90;;;;;;8394957;28;20049;-69
2021/08/20 19:54:06;;;;;;;;;;;18.00;99.90;;;;;;8425680;28;19908;-70
2021/08/20 19:58:08;;;;;;;;;;;17.80;99.90;;;;;;8426468;28;19916;-69
2021/08/20 20:02:08;;;;;;;;;;;17.60;99.90;;;;;;8427968;28;19950;-69
2021/08/20 20:06:09;;;;;;;;;;;17.30;99.90;;;;;;8428745;28;19915;-69
2021/08/20 20:10:10;;;;;;;;;;;17.40;99.90;;;;;;8428624;28;19912;-69
2021/08/20 20:14:11;;;;;;;;;;;17.30;99.90;;;;;;8428028;28;19912;-70
2021/08/20 20:18:11;;;;;;;;;;;17.30;99.90;;;;;;8429111;28;20381;-68
2021/08/20 20:22:11;;;;;;;;;;;17.20;99.90;;;;;;8428059;28;19913;-69
2021/08/20 20:26:12;;;;;;;;;;;17.00;99.90;;;;;;8427323;28;19908;-71
2021/08/20 20:30:13;;;;;;;;;;;17.30;99.90;;;;;;8428158;28;19919;-72
2021/08/20 20:34:13;;;;;;;;;;;17.00;99.90;;;;;;8427698;28;19916;-73
2021/08/20 20:38:14;;;;;;;;;;;16.60;99.90;;;;;;8427881;28;19908;-73
2021/08/20 20:42:14;;;;;;;;;;;16.80;99.90;;;;;;8427983;28;20427;-70
2021/08/20 20:46:18;;;;;;;;;;;16.90;99.90;;;;;;8426736;28;19912;-71
2021/08/20 20:50:18;;;;;;;;;;;16.80;99.90;;;;;;8426883;28;19939;-71
2021/08/20 20:54:19;;;;;;;;;;;16.70;99.90;;;;;;8427935;28;19908;-71
2021/08/20 20:58:21;;;;;;;;;;;16.50;99.90;;;;;;8427230;28;19954;-71
2021/08/20 21:02:21;;;;;;;;;;;16.30;99.90;;;;;;8426108;28;19912;-72
2021/08/20 21:06:22;;;;;;;;;;;16.40;99.90;;;;;;8426215;28;20294;-71
2021/08/20 21:10:23;;;;;;;;;;;16.30;99.90;;;;;;8426932;28;19912;-71
2021/08/20 21:14:23;;;;;;;;;;;16.10;99.90;;;;;;8426987;28;19986;-71
2021/08/20 21:18:24;;;;;;;;;;;15.80;99.90;;;;;;8425484;28;19908;-70
2021/08/20 21:22:24;;;;;;;;;;;15.80;99.90;;;;;;8425509;28;19916;-72
2021/08/20 21:26:25;;;;;;;;;;;15.90;99.90;;;;;;8426633;28;20405;-71
2021/08/20 21:30:25;;;;;;;;;;;15.90;99.90;;;;;;8426354;28;19912;-71
2021/08/20 21:34:26;;;;;;;;;;;16.00;99.90;;;;;;8426498;28;19916;-70
2021/08/20 21:38:26;;;;;;;;;;;15.80;99.90;;;;;;8425540;28;19961;-70
2021/08/20 21:42:27;;;;;;;;;;;15.60;99.90;;;;;;8425733;28;19909;-74
2021/08/20 21:46:27;;;;;;;;;;;15.40;99.90;;;;;;8425655;28;19965;-72
2021/08/20 21:50:28;;;;;;;;;;;15.60;99.90;;;;;;8424108;28;19912;-71
2021/08/20 21:54:28;;;;;;;;;;;15.70;99.90;;;;;;8426137;28;19916;-71
2021/08/20 21:58:29;;;;;;;;;;;15.50;99.90;;;;;;8424606;28;19909;-71
2021/08/20 22:02:30;;;;;;;;;;;15.40;99.90;;;;;;8425800;28;20408;-71
2021/08/20 22:06:30;;;;;;;;;;;15.30;99.90;;;;;;8424242;28;19908;-71
2021/08/20 22:10:31;;;;;;;;;;;15.30;99.90;;;;;;8425094;28;20072;-70
2021/08/20 22:14:32;;;;;;;;;;;15.00;99.90;;;;;;8425147;28;20436;-70
2021/08/20 22:18:32;;;;;;;;;;;14.90;99.90;;;;;;8436402;28;19916;-71
2021/08/20 22:22:33;;;;;;;;;;;14.80;99.90;;;;;;8433826;28;20355;-70
2021/08/20 22:26:35;;;;;;;;;;;15.10;99.90;;;;;;8434853;28;19962;-71
2021/08/20 22:30:35;;;;;;;;;;;15.10;99.90;;;;;;8436181;28;19995;-71
2021/08/20 22:34:36;;;;;;;;;;;15.00;99.90;;;;;;8436328;28;19916;-72
2021/08/20 22:38:36;;;;;;;;;;;14.70;99.90;;;;;;8436134;28;19920;-71
2021/08/20 22:42:37;;;;;;;;;;;14.70;99.90;;;;;;8434526;28;19912;-71
2021/08/20 22:46:38;;;;;;;;;;;15.00;99.90;;;;;;8436014;28;19915;-70
2021/08/20 22:50:38;;;;;;;;;;;14.80;99.90;;;;;;8433864;28;19912;-70
2021/08/20 22:54:39;;;;;;;;;;;14.60;99.90;;;;;;8423936;28;19915;-72
2021/08/20 22:58:39;;;;;;;;;;;14.50;99.90;;;;;;8402186;28;19909;-70
2021/08/20 23:02:40;;;;;;;;;;;14.40;99.90;;;;;;8402334;28;19908;-71
2021/08/20 23:06:40;;;;;;;;;;;14.40;99.90;;;;;;8402203;28;19919;-71
2021/08/20 23:10:41;;;;;;;;;;;14.30;99.90;;;;;;8401986;28;19960;-71
2021/08/20 23:14:41;;;;;;;;;;;14.30;99.90;;;;;;8402085;28;19939;-70
2021/08/20 23:18:42;;;;;;;;;;;14.50;99.90;;;;;;8401988;28;19916;-70
2021/08/20 23:22:42;;;;;;;;;;;14.20;99.90;;;;;;8425162;28;19909;-70
2021/08/20 23:26:43;;;;;;;;;;;14.30;99.90;;;;;;8420749;28;19909;-70
2021/08/20 23:30:43;;;;;;;;;;;14.50;99.90;;;;;;8396531;28;19912;-71
2021/08/20 23:34:44;;;;;;;;;;;14.20;99.90;;;;;;8396593;28;19920;-70
2021/08/20 23:38:44;;;;;;;;;;;14.00;99.90;;;;;;8394821;28;19908;-70
2021/08/20 23:42:45;;;;;;;;;;;13.90;99.90;;;;;;8396557;28;19908;-71
2021/08/20 23:46:45;;;;;;;;;;;13.90;99.90;;;;;;8396252;28;19931;-70
2021/08/20 23:50:46;;;;;;;;;;;14.00;99.90;;;;;;8401541;28;20290;-70
2021/08/20 23:54:46;;;;;;;;;;;14.00;99.90;;;;;;8428269;28;19908;-71
2021/08/20 23:58:47;;;;;;;;;;;14.00;99.90;;;;;;8418205;28;20015;-70
